Time;durP1;ratioP1;P1;durP2;ratioP2;P2;SDS_P1;SDS_P2;PMS_P1;PMS_P2;Temp;Humidity;BMP_temperature;BMP_pressure;BME280_temperature;BME280_humidity;BME280_pressure;Samples;Min_cycle;Max_cycle;Signal;HPM_P1;HPM_P2
2024/03/18 00:00:12;;;;;;;;;;;9.20;1.00;;;;;;5043151;28;20427;-77
2024/03/18 00:02:50;;;;;;;;;;;9.20;1.00;;;;;;5040634;28;20005;-78
2024/03/18 00:05:24;;;;;;;;;;;9.30;1.00;;;;;;5042167;28;19924;-78
2024/03/18 00:08:14;;;;;;;;;;;9.30;1.00;;;;;;5053612;28;19909;-78
2024/03/18 00:10:39;;;;;;;;;;;9.30;1.00;;;;;;5028651;28;19917;-78
2024/03/18 00:13:30;;;;;;;;;;;9.30;1.00;;;;;;5033803;28;20253;-78
2024/03/18 00:16:00;;;;;;;;;;;9.30;1.00;;;;;;5034179;28;19948;-76
2024/03/18 00:18:26;;;;;;;;;;;9.30;1.00;;;;;;5045283;28;19905;-77
2024/03/18 00:20:52;;;;;;;;;;;9.30;1.00;;;;;;5050498;28;19928;-77
2024/03/18 00:23:25;;;;;;;;;;;9.30;1.00;;;;;;5032827;28;19940;-77
2024/03/18 00:26:12;;;;;;;;;;;9.40;1.00;;;;;;5036501;28;20323;-77
2024/03/18 00:28:43;;;;;;;;;;;9.40;1.00;;;;;;5051770;28;19912;-77
2024/03/18 00:31:10;;;;;;;;;;;9.30;1.00;;;;;;5047636;28;19905;-76
2024/03/18 00:33:42;;;;;;;;;;;9.30;1.00;;;;;;5041735;28;19905;-77
2024/03/18 00:36:12;;;;;;;;;;;9.30;1.00;;;;;;5045252;28;20000;-77
2024/03/18 00:38:38;;;;;;;;;;;9.30;1.00;;;;;;5050647;28;19916;-77
2024/03/18 00:43:58;;;;;;;;;;;9.30;1.00;;;;;;5057338;28;19947;-77
2024/03/18 00:46:25;;;;;;;;;;;9.30;1.00;;;;;;5046774;28;19920;-77
2024/03/18 00:48:51;;;;;;;;;;;9.30;1.00;;;;;;5038013;28;20264;-77
2024/03/18 00:51:48;;;;;;;;;;;9.30;1.00;;;;;;5040063;28;19928;-76
2024/03/18 00:57:17;;;;;;;;;;;9.30;1.00;;;;;;5036889;28;19994;-77
2024/03/18 00:59:42;;;;;;;;;;;9.30;1.00;;;;;;5020723;28;19912;-77
2024/03/18 01:02:08;;;;;;;;;;;9.30;1.00;;;;;;5039842;28;19908;-78
2024/03/18 01:05:00;;;;;;;;;;;9.30;1.00;;;;;;5036662;28;19919;-78
2024/03/18 01:07:37;;;;;;;;;;;9.30;1.00;;;;;;5052971;28;19911;-79
2024/03/18 01:10:13;;;;;;;;;;;9.30;1.00;;;;;;5052303;28;20359;-79
2024/03/18 01:12:40;;;;;;;;;;;9.40;1.00;;;;;;5032956;28;20356;-79
2024/03/18 01:15:07;;;;;;;;;;;9.40;1.00;;;;;;5049127;28;19904;-78
2024/03/18 01:17:54;;;;;;;;;;;9.40;1.00;;;;;;5043553;28;19928;-78
2024/03/18 01:20:24;;;;;;;;;;;9.40;1.00;;;;;;5047577;28;19913;-79
2024/03/18 01:22:55;;;;;;;;;;;9.40;1.00;;;;;;5038156;28;19920;-79
2024/03/18 01:25:25;;;;;;;;;;;9.40;1.00;;;;;;5044109;28;19912;-78
2024/03/18 01:27:55;;;;;;;;;;;9.40;1.00;;;;;;5045302;28;19958;-78
2024/03/18 01:30:25;;;;;;;;;;;9.50;1.00;;;;;;5047663;28;19909;-79
2024/03/18 01:32:51;;;;;;;;;;;9.50;1.00;;;;;;5035931;28;19916;-78
2024/03/18 01:35:22;;;;;;;;;;;9.50;1.00;;;;;;5045778;28;19912;-78
2024/03/18 01:37:48;;;;;;;;;;;9.50;1.00;;;;;;5042624;28;19940;-78
2024/03/18 01:40:42;;;;;;;;;;;9.50;1.00;;;;;;5036501;28;20006;-79
2024/03/18 01:43:12;;;;;;;;;;;9.50;1.00;;;;;;5037960;28;19912;-78
2024/03/18 01:45:43;;;;;;;;;;;9.50;1.00;;;;;;5036994;28;19920;-79
2024/03/18 01:48:43;;;;;;;;;;;9.40;1.00;;;;;;5048183;28;20261;-78
2024/03/18 01:51:09;;;;;;;;;;;9.50;1.00;;;;;;5048969;28;20353;-79
2024/03/18 01:53:43;;;;;;;;;;;9.40;1.00;;;;;;5041766;28;19912;-78
2024/03/18 01:56:09;;;;;;;;;;;9.40;1.00;;;;;;5048333;28;19955;-78
2024/03/18 01:58:36;;;;;;;;;;;9.30;1.00;;;;;;5035518;28;19913;-80
2024/03/18 02:01:12;;;;;;;;;;;9.30;1.00;;;;;;5034186;28;19911;-80
2024/03/18 02:09:44;;;;;;;;;;;9.30;1.00;;;;;;5042221;28;19982;-79
2024/03/18 02:12:36;;;;;;;;;;;9.30;1.00;;;;;;5036563;28;19908;-78
2024/03/18 02:15:07;;;;;;;;;;;9.30;1.00;;;;;;5039538;28;19920;-79
2024/03/18 02:17:42;;;;;;;;;;;9.30;1.00;;;;;;5035705;28;19909;-78
2024/03/18 02:20:30;;;;;;;;;;;9.30;1.00;;;;;;5021918;28;20000;-78
2024/03/18 02:23:20;;;;;;;;;;;9.30;1.00;;;;;;5041780;28;19909;-79
2024/03/18 02:29:01;;;;;;;;;;;9.40;1.00;;;;;;5035074;28;19979;-79
2024/03/18 02:31:30;;;;;;;;;;;9.40;1.00;;;;;;5039087;28;20002;-79
2024/03/18 02:34:01;;;;;;;;;;;9.40;1.00;;;;;;5040732;28;19916;-77
2024/03/18 02:36:37;;;;;;;;;;;9.40;1.00;;;;;;5047591;28;19909;-77
2024/03/18 02:39:02;;;;;;;;;;;9.40;1.00;;;;;;5037295;28;19913;-77
2024/03/18 02:41:28;;;;;;;;;;;9.40;1.00;;;;;;5039632;28;19963;-77
2024/03/18 02:43:54;;;;;;;;;;;9.40;1.00;;;;;;5043795;28;19909;-77
2024/03/18 02:46:25;;;;;;;;;;;9.40;1.00;;;;;;5030794;28;19905;-77
2024/03/18 02:49:01;;;;;;;;;;;9.40;1.00;;;;;;5046600;28;19955;-79
2024/03/18 02:51:26;;;;;;;;;;;9.40;1.00;;;;;;5020426;28;19909;-79
2024/03/18 02:53:52;;;;;;;;;;;9.40;1.00;;;;;;5040374;28;19909;-79
2024/03/18 02:56:17;;;;;;;;;;;9.50;1.00;;;;;;5040851;28;19904;-78
2024/03/18 03:02:12;;;;;;;;;;;9.60;1.00;;;;;;5045326;28;19955;-78
2024/03/18 03:04:42;;;;;;;;;;;9.60;1.00;;;;;;5028043;28;19913;-79
2024/03/18 03:07:25;;;;;;;;;;;9.60;1.00;;;;;;5047966;28;19912;-79
2024/03/18 03:09:55;;;;;;;;;;;9.60;1.00;;;;;;5034500;28;19905;-79
2024/03/18 03:12:26;;;;;;;;;;;9.70;1.00;;;;;;5049273;28;19905;-78
2024/03/18 03:15:01;;;;;;;;;;;9.70;1.00;;;;;;5042041;28;19909;-79
2024/03/18 03:17:37;;;;;;;;;;;9.70;1.00;;;;;;5034553;28;19916;-77
2024/03/18 03:20:08;;;;;;;;;;;9.70;1.00;;;;;;5043535;28;19909;-77
2024/03/18 03:22:37;;;;;;;;;;;9.80;1.00;;;;;;5048936;28;19966;-77
2024/03/18 03:25:07;;;;;;;;;;;9.70;1.00;;;;;;5041008;28;21518;-77
2024/03/18 03:27:34;;;;;;;;;;;9.70;1.00;;;;;;5044315;28;19905;-76
2024/03/18 03:30:24;;;;;;;;;;;9.70;1.00;;;;;;5048145;28;19998;-77
2024/03/18 03:32:50;;;;;;;;;;;9.70;1.00;;;;;;5048511;28;19909;-79
2024/03/18 03:35:16;;;;;;;;;;;9.80;1.00;;;;;;5040980;28;19915;-79
2024/03/18 03:37:50;;;;;;;;;;;9.80;1.00;;;;;;5040598;28;19905;-80
2024/03/18 03:40:16;;;;;;;;;;;9.90;1.00;;;;;;5041938;28;20391;-79
2024/03/18 03:42:43;;;;;;;;;;;9.90;1.00;;;;;;5039598;28;19905;-79
2024/03/18 03:45:30;;;;;;;;;;;9.90;1.00;;;;;;5046022;28;19912;-79
2024/03/18 03:48:00;;;;;;;;;;;10.00;1.00;;;;;;5036549;28;19909;-77
2024/03/18 03:50:26;;;;;;;;;;;10.00;1.00;;;;;;5034338;28;19909;-77
2024/03/18 03:52:52;;;;;;;;;;;10.00;1.00;;;;;;5022614;28;19927;-77
2024/03/18 03:55:24;;;;;;;;;;;10.00;1.00;;;;;;5044964;28;19909;-77
2024/03/18 03:57:50;;;;;;;;;;;10.10;1.00;;;;;;5049952;28;19912;-77
2024/03/18 04:00:16;;;;;;;;;;;10.10;1.00;;;;;;5038034;28;19909;-77
2024/03/18 04:02:42;;;;;;;;;;;10.10;1.00;;;;;;5050084;28;19952;-78
2024/03/18 04:05:18;;;;;;;;;;;10.10;1.00;;;;;;5030979;28;19955;-78
2024/03/18 04:07:49;;;;;;;;;;;10.00;1.00;;;;;;5053749;28;19913;-77
2024/03/18 04:10:15;;;;;;;;;;;10.10;1.00;;;;;;5056078;28;19974;-77
2024/03/18 04:12:43;;;;;;;;;;;10.10;1.00;;;;;;5044065;28;20357;-77
2024/03/18 04:15:09;;;;;;;;;;;10.10;1.00;;;;;;5038879;28;19905;-77
2024/03/18 04:17:37;;;;;;;;;;;10.20;1.00;;;;;;5037571;28;19919;-77
2024/03/18 04:20:18;;;;;;;;;;;10.20;1.00;;;;;;5044360;28;19909;-79
2024/03/18 04:22:50;;;;;;;;;;;10.20;1.00;;;;;;5045792;28;19928;-79
2024/03/18 04:28:54;;;;;;;;;;;10.20;1.00;;;;;;5050860;28;19911;-80
2024/03/18 04:31:25;;;;;;;;;;;10.20;1.00;;;;;;5050734;28;19954;-80
2024/03/18 04:33:50;;;;;;;;;;;10.20;1.00;;;;;;5037633;28;19991;-77
2024/03/18 04:36:25;;;;;;;;;;;10.20;1.00;;;;;;5044730;28;19968;-78
2024/03/18 04:39:08;;;;;;;;;;;10.20;1.00;;;;;;5047315;28;19909;-77
2024/03/18 04:41:36;;;;;;;;;;;10.20;1.00;;;;;;5037499;28;20304;-77
2024/03/18 04:44:06;;;;;;;;;;;10.20;1.00;;;;;;5022129;28;19905;-77
2024/03/18 04:46:33;;;;;;;;;;;10.30;1.00;;;;;;5045875;28;19916;-78
2024/03/18 04:48:59;;;;;;;;;;;10.20;1.00;;;;;;5044414;28;20272;-76
2024/03/18 04:51:30;;;;;;;;;;;10.20;1.00;;;;;;5043936;28;19913;-76
2024/03/18 04:53:56;;;;;;;;;;;10.20;1.00;;;;;;5038157;28;19912;-76
2024/03/18 04:56:42;;;;;;;;;;;10.20;1.00;;;;;;5046555;28;19905;-76
2024/03/18 04:59:13;;;;;;;;;;;10.30;1.00;;;;;;5037009;28;20027;-76
2024/03/18 05:01:49;;;;;;;;;;;10.20;1.00;;;;;;5036918;28;19917;-77
2024/03/18 05:04:14;;;;;;;;;;;10.30;1.00;;;;;;5040381;28;19909;-78
2024/03/18 05:06:41;;;;;;;;;;;10.30;1.00;;;;;;5025015;28;20254;-78
2024/03/18 05:09:13;;;;;;;;;;;10.30;1.00;;;;;;5049519;28;19916;-80
2024/03/18 05:11:43;;;;;;;;;;;10.30;1.00;;;;;;5042437;28;20360;-78
2024/03/18 05:14:19;;;;;;;;;;;10.30;1.00;;;;;;5025856;28;20367;-78
2024/03/18 05:16:45;;;;;;;;;;;10.30;1.00;;;;;;5045448;28;19912;-78
2024/03/18 05:19:10;;;;;;;;;;;10.40;1.00;;;;;;5038687;28;19909;-76
2024/03/18 05:21:37;;;;;;;;;;;10.30;1.00;;;;;;5040050;28;19909;-76
2024/03/18 05:24:13;;;;;;;;;;;10.30;1.00;;;;;;5048542;28;19955;-76
2024/03/18 05:26:38;;;;;;;;;;;10.40;1.00;;;;;;5050190;28;19996;-73
2024/03/18 05:29:04;;;;;;;;;;;10.40;1.00;;;;;;5044973;28;19971;-76
2024/03/18 05:31:44;;;;;;;;;;;10.30;1.00;;;;;;5042861;28;20253;-76
2024/03/18 05:34:09;;;;;;;;;;;10.40;1.00;;;;;;5062452;28;19908;-76
2024/03/18 05:36:35;;;;;;;;;;;10.40;1.00;;;;;;5054178;28;20344;-77
2024/03/18 05:39:02;;;;;;;;;;;10.40;1.00;;;;;;5039292;28;19916;-76
2024/03/18 05:41:28;;;;;;;;;;;10.40;1.00;;;;;;5039222;28;20296;-76
2024/03/18 05:44:01;;;;;;;;;;;10.40;1.00;;;;;;5035417;28;19909;-79
2024/03/18 05:46:27;;;;;;;;;;;10.40;1.00;;;;;;5032960;28;20280;-77
2024/03/18 05:48:52;;;;;;;;;;;10.30;1.00;;;;;;5037916;28;19909;-83
2024/03/18 05:51:25;;;;;;;;;;;10.30;1.00;;;;;;5023359;28;19944;-77
2024/03/18 05:53:50;;;;;;;;;;;10.40;1.00;;;;;;5049354;28;19954;-79
2024/03/18 05:56:19;;;;;;;;;;;10.40;1.00;;;;;;5035629;28;19909;-78
2024/03/18 05:59:08;;;;;;;;;;;10.40;1.00;;;;;;5037233;28;20043;-76
2024/03/18 06:01:37;;;;;;;;;;;10.50;1.00;;;;;;5033133;28;20234;-75
2024/03/18 06:04:07;;;;;;;;;;;10.50;1.00;;;;;;5020940;28;19912;-76
2024/03/18 06:06:33;;;;;;;;;;;10.50;1.00;;;;;;5026773;28;19905;-76
2024/03/18 06:08:59;;;;;;;;;;;10.60;1.00;;;;;;5038048;28;19912;-76
2024/03/18 06:11:31;;;;;;;;;;;10.60;1.00;;;;;;5044267;28;19909;-76
2024/03/18 06:13:57;;;;;;;;;;;10.60;1.00;;;;;;5035777;28;19959;-76
2024/03/18 06:16:23;;;;;;;;;;;10.70;1.00;;;;;;5040346;28;19995;-76
2024/03/18 06:18:49;;;;;;;;;;;10.70;1.00;;;;;;5047995;28;19905;-76
2024/03/18 06:21:32;;;;;;;;;;;10.80;1.00;;;;;;5039051;28;19920;-80
2024/03/18 06:24:05;;;;;;;;;;;10.90;1.00;;;;;;5035155;28;20267;-80
2024/03/18 06:26:31;;;;;;;;;;;10.90;1.00;;;;;;5048611;28;20427;-79
2024/03/18 06:29:01;;;;;;;;;;;10.90;1.00;;;;;;5020153;28;20406;-80
2024/03/18 06:31:33;;;;;;;;;;;11.00;1.00;;;;;;5037055;28;19905;-80
2024/03/18 06:33:59;;;;;;;;;;;11.00;1.00;;;;;;5054778;28;19911;-79
2024/03/18 06:36:37;;;;;;;;;;;11.10;1.00;;;;;;5041936;28;19999;-80
2024/03/18 06:39:03;;;;;;;;;;;11.10;1.00;;;;;;5051010;28;19948;-79
2024/03/18 06:41:43;;;;;;;;;;;11.10;1.00;;;;;;5041464;28;19948;-79
2024/03/18 06:44:19;;;;;;;;;;;11.20;1.00;;;;;;5023654;28;19912;-78
2024/03/18 06:47:01;;;;;;;;;;;11.20;1.00;;;;;;5046414;28;19909;-78
2024/03/18 06:49:35;;;;;;;;;;;11.20;1.00;;;;;;5024197;28;19913;-78
2024/03/18 06:52:01;;;;;;;;;;;11.20;1.00;;;;;;5042991;28;19920;-78
2024/03/18 06:54:31;;;;;;;;;;;11.20;1.00;;;;;;5041140;28;19908;-79
2024/03/18 06:56:57;;;;;;;;;;;11.30;1.00;;;;;;5054513;28;19905;-79
2024/03/18 06:59:23;;;;;;;;;;;11.20;1.00;;;;;;5022582;28;20050;-79
2024/03/18 07:01:49;;;;;;;;;;;11.30;1.00;;;;;;5036893;28;19995;-79
2024/03/18 07:04:15;;;;;;;;;;;11.20;1.00;;;;;;5049645;28;19916;-79
2024/03/18 07:06:40;;;;;;;;;;;11.20;1.00;;;;;;5050625;28;19917;-79
2024/03/18 07:09:15;;;;;;;;;;;11.20;1.00;;;;;;5046124;28;19908;-79
2024/03/18 07:11:41;;;;;;;;;;;11.10;1.00;;;;;;5035963;28;19904;-79
2024/03/18 07:14:15;;;;;;;;;;;11.00;1.00;;;;;;5057754;28;19905;-79
2024/03/18 07:16:55;;;;;;;;;;;11.00;1.00;;;;;;5036606;28;20271;-79
2024/03/18 07:19:43;;;;;;;;;;;10.90;1.00;;;;;;5049698;28;19916;-79
2024/03/18 07:22:13;;;;;;;;;;;10.90;1.00;;;;;;5042773;28;19909;-78
2024/03/18 07:24:49;;;;;;;;;;;11.00;1.00;;;;;;5044281;28;19962;-77
2024/03/18 07:27:38;;;;;;;;;;;11.00;1.00;;;;;;5053624;28;19920;-78
2024/03/18 07:30:25;;;;;;;;;;;11.00;1.00;;;;;;5040514;28;20118;-78
2024/03/18 07:32:55;;;;;;;;;;;11.00;1.00;;;;;;5050917;28;19915;-78
2024/03/18 07:35:20;;;;;;;;;;;11.00;1.00;;;;;;5046739;28;19915;-78
2024/03/18 07:37:51;;;;;;;;;;;11.00;1.00;;;;;;5047178;28;20043;-79
2024/03/18 07:43:20;;;;;;;;;;;11.10;1.00;;;;;;5046498;28;20297;-79
2024/03/18 07:45:49;;;;;;;;;;;11.20;1.00;;;;;;5031675;28;19909;-79
2024/03/18 07:48:19;;;;;;;;;;;11.20;1.00;;;;;;5053306;28;19908;-79
2024/03/18 07:50:54;;;;;;;;;;;11.20;1.00;;;;;;5051103;28;19963;-78
2024/03/18 07:53:20;;;;;;;;;;;11.40;1.00;;;;;;5047828;28;20380;-78
2024/03/18 07:55:45;;;;;;;;;;;11.40;1.00;;;;;;5046118;28;19916;-79
2024/03/18 07:58:13;;;;;;;;;;;11.50;1.00;;;;;;5050860;28;19904;-78
2024/03/18 08:00:38;;;;;;;;;;;11.50;1.00;;;;;;5031740;28;19909;-79
2024/03/18 08:03:04;;;;;;;;;;;11.50;1.00;;;;;;5034922;28;19908;-77
2024/03/18 08:05:30;;;;;;;;;;;11.50;1.00;;;;;;5050860;28;19917;-78
2024/03/18 08:07:56;;;;;;;;;;;11.50;1.00;;;;;;5046249;28;19909;-78
2024/03/18 08:10:25;;;;;;;;;;;11.50;1.00;;;;;;5052153;28;19931;-78
2024/03/18 08:12:56;;;;;;;;;;;11.60;1.00;;;;;;5032735;28;19924;-78
2024/03/18 08:15:25;;;;;;;;;;;11.60;1.00;;;;;;5051500;28;19912;-79
2024/03/18 08:18:13;;;;;;;;;;;11.70;1.00;;;;;;5048108;28;19948;-77
2024/03/18 08:20:49;;;;;;;;;;;11.70;1.00;;;;;;5051654;28;19911;-77
2024/03/18 08:23:25;;;;;;;;;;;11.70;1.00;;;;;;5052274;28;19919;-77
2024/03/18 08:26:19;;;;;;;;;;;11.80;1.00;;;;;;5049094;28;19916;-77
2024/03/18 08:28:44;;;;;;;;;;;11.70;1.00;;;;;;5050378;28;19908;-79
2024/03/18 08:31:10;;;;;;;;;;;11.70;1.00;;;;;;5045949;28;20007;-77
2024/03/18 08:33:43;;;;;;;;;;;11.70;1.00;;;;;;5051243;28;19912;-77
2024/03/18 08:36:08;;;;;;;;;;;11.70;1.00;;;;;;5052015;28;19905;-77
2024/03/18 08:38:37;;;;;;;;;;;11.70;1.00;;;;;;5044832;28;19913;-78
2024/03/18 08:41:02;;;;;;;;;;;11.70;1.00;;;;;;5045384;28;19920;-78
2024/03/18 08:43:37;;;;;;;;;;;11.90;1.00;;;;;;5044575;28;19908;-77
2024/03/18 08:46:19;;;;;;;;;;;12.00;1.00;;;;;;5044506;28;19955;-77
2024/03/18 08:49:13;;;;;;;;;;;12.00;1.00;;;;;;5056807;28;19916;-77
2024/03/18 08:51:49;;;;;;;;;;;12.20;1.00;;;;;;5050467;28;19909;-79
2024/03/18 08:54:16;;;;;;;;;;;12.20;1.00;;;;;;5047041;28;19947;-80
2024/03/18 08:56:43;;;;;;;;;;;12.20;1.00;;;;;;5030932;28;19916;-78
2024/03/18 08:59:13;;;;;;;;;;;12.30;1.00;;;;;;5056391;28;20352;-80
2024/03/18 09:01:38;;;;;;;;;;;12.30;1.00;;;;;;5050807;28;19923;-79
2024/03/18 09:04:37;;;;;;;;;;;12.40;1.00;;;;;;5053720;28;19983;-80
2024/03/18 09:07:07;;;;;;;;;;;12.40;1.00;;;;;;5056771;28;19909;-80
2024/03/18 09:09:33;;;;;;;;;;;12.60;1.00;;;;;;5052898;28;19912;-80
2024/03/18 09:15:19;;;;;;;;;;;12.70;1.00;;;;;;5052649;28;19927;-79
2024/03/18 09:17:45;;;;;;;;;;;12.70;1.00;;;;;;5051842;28;19912;-79
2024/03/18 09:23:19;;;;;;;;;;;12.70;1.00;;;;;;5042180;28;19931;-79
2024/03/18 09:25:55;;;;;;;;;;;12.80;1.00;;;;;;5053097;28;19921;-79
2024/03/18 09:31:23;;;;;;;;;;;13.00;1.00;;;;;;5055392;28;19911;-79
2024/03/18 09:34:01;;;;;;;;;;;13.10;1.00;;;;;;5053857;28;19905;-79
2024/03/18 09:36:43;;;;;;;;;;;13.20;1.00;;;;;;5052674;28;19905;-79
2024/03/18 09:39:09;;;;;;;;;;;13.30;1.00;;;;;;5056017;28;20363;-76
2024/03/18 09:41:39;;;;;;;;;;;13.30;1.00;;;;;;5055328;28;20005;-76
2024/03/18 09:44:07;;;;;;;;;;;;;;;;;;5039338;28;19931;-77
2024/03/18 09:46:32;;;;;;;;;;;13.60;1.00;;;;;;5051048;28;19916;-76
2024/03/18 09:49:14;;;;;;;;;;;13.70;1.00;;;;;;5055081;28;19912;-76
2024/03/18 09:51:40;;;;;;;;;;;13.80;1.00;;;;;;5050894;28;20370;-78
2024/03/18 09:54:13;;;;;;;;;;;13.80;1.00;;;;;;5054382;28;20394;-76
2024/03/18 09:56:48;;;;;;;;;;;13.70;1.00;;;;;;5049088;28;19975;-76
2024/03/18 09:59:14;;;;;;;;;;;13.80;1.00;;;;;;5040939;28;20280;-76
2024/03/18 10:01:40;;;;;;;;;;;13.90;1.00;;;;;;5051383;28;19908;-76
2024/03/18 10:04:07;;;;;;;;;;;13.90;1.00;;;;;;5049156;28;19909;-76
2024/03/18 10:06:36;;;;;;;;;;;14.00;1.00;;;;;;5050954;28;20504;-76
2024/03/18 10:09:02;;;;;;;;;;;14.20;1.00;;;;;;5052810;28;20430;-76
2024/03/18 10:11:27;;;;;;;;;;;14.30;1.00;;;;;;5045518;28;19941;-76
2024/03/18 10:13:53;;;;;;;;;;;14.60;1.00;;;;;;5043545;28;19968;-76
2024/03/18 10:16:19;;;;;;;;;;;14.60;1.00;;;;;;5040793;28;20271;-76
2024/03/18 10:18:47;;;;;;;;;;;14.70;1.00;;;;;;5045602;28;20291;-76
2024/03/18 10:21:19;;;;;;;;;;;14.80;1.00;;;;;;5043703;28;19909;-76
2024/03/18 10:24:14;;;;;;;;;;;14.80;1.00;;;;;;5047968;28;19935;-79
2024/03/18 10:27:07;;;;;;;;;;;14.80;1.00;;;;;;5054648;28;20003;-79
2024/03/18 10:29:49;;;;;;;;;;;14.80;1.00;;;;;;5052100;28;19972;-79
2024/03/18 10:32:37;;;;;;;;;;;15.10;1.00;;;;;;5054500;28;19919;-79
2024/03/18 10:35:17;;;;;;;;;;;15.10;1.00;;;;;;5054436;28;19908;-79
2024/03/18 10:37:53;;;;;;;;;;;15.10;1.00;;;;;;5038110;28;20249;-79
2024/03/18 10:40:43;;;;;;;;;;;15.10;1.00;;;;;;5052074;28;19917;-80
2024/03/18 10:43:16;;;;;;;;;;;15.20;1.00;;;;;;5054334;28;19995;-79
2024/03/18 10:45:52;;;;;;;;;;;15.30;1.00;;;;;;5046687;28;19913;-78
2024/03/18 10:48:17;;;;;;;;;;;15.00;1.00;;;;;;5049860;28;19959;-79
2024/03/18 10:50:44;;;;;;;;;;;14.90;1.00;;;;;;5053908;28;19905;-79
2024/03/18 10:53:21;;;;;;;;;;;14.80;1.00;;;;;;5050557;28;19984;-79
2024/03/18 10:55:52;;;;;;;;;;;15.10;1.00;;;;;;5036450;28;19909;-79
2024/03/18 10:58:22;;;;;;;;;;;15.40;1.00;;;;;;5038889;28;19909;-77
2024/03/18 11:01:13;;;;;;;;;;;15.60;1.00;;;;;;5038519;28;20003;-85
2024/03/18 11:03:45;;;;;;;;;;;15.70;1.00;;;;;;5052898;28;19952;-78
2024/03/18 11:06:14;;;;;;;;;;;15.90;1.00;;;;;;5052372;28;19924;-78
2024/03/18 11:08:43;;;;;;;;;;;16.20;1.00;;;;;;5022785;28;19909;-78
2024/03/18 11:11:14;;;;;;;;;;;16.40;1.00;;;;;;5042971;28;20365;-79
2024/03/18 11:13:41;;;;;;;;;;;16.60;1.00;;;;;;5045680;28;20365;-82
2024/03/18 11:16:11;;;;;;;;;;;16.90;1.00;;;;;;5033643;28;20418;-81
2024/03/18 11:18:44;;;;;;;;;;;17.00;1.00;;;;;;5044934;28;19954;-79
2024/03/18 11:21:31;;;;;;;;;;;17.00;1.00;;;;;;5043855;28;19909;-76
2024/03/18 11:24:03;;;;;;;;;;;16.90;1.00;;;;;;5050681;28;19909;-78
2024/03/18 11:26:43;;;;;;;;;;;16.60;1.00;;;;;;5041003;28;19963;-80
2024/03/18 11:29:14;;;;;;;;;;;16.80;1.00;;;;;;5028558;28;19906;-81
2024/03/18 11:31:52;;;;;;;;;;;16.90;1.00;;;;;;5042155;28;19904;-81
2024/03/18 11:34:25;;;;;;;;;;;17.20;1.00;;;;;;5046378;28;19952;-81
2024/03/18 11:37:04;;;;;;;;;;;17.00;1.00;;;;;;5050699;28;19909;-82
2024/03/18 11:39:29;;;;;;;;;;;17.30;1.00;;;;;;5046223;28;19987;-77
2024/03/18 11:42:03;;;;;;;;;;;17.20;1.00;;;;;;5050047;28;19955;-77
2024/03/18 11:44:49;;;;;;;;;;;17.20;1.00;;;;;;5035324;28;19909;-82
2024/03/18 11:47:49;;;;;;;;;;;17.10;1.00;;;;;;5048850;28;20291;-77
2024/03/18 11:50:19;;;;;;;;;;;17.10;1.00;;;;;;5048220;28;19913;-77
2024/03/18 11:52:56;;;;;;;;;;;16.90;1.00;;;;;;5043064;28;19909;-76
2024/03/18 11:55:33;;;;;;;;;;;17.00;1.00;;;;;;5024194;28;19905;-78
2024/03/18 11:57:59;;;;;;;;;;;17.10;1.00;;;;;;5045965;28;19951;-77
2024/03/18 12:00:25;;;;;;;;;;;17.30;1.00;;;;;;5048570;28;19949;-77
2024/03/18 12:02:51;;;;;;;;;;;17.70;1.00;;;;;;5049510;28;19920;-77
2024/03/18 12:05:19;;;;;;;;;;;17.70;1.00;;;;;;5052820;28;19954;-78
2024/03/18 12:07:45;;;;;;;;;;;17.80;1.00;;;;;;5050305;28;19912;-79
2024/03/18 12:10:26;;;;;;;;;;;17.80;1.00;;;;;;5044590;28;19913;-77
2024/03/18 12:12:52;;;;;;;;;;;17.60;1.00;;;;;;5045304;28;19920;-76
2024/03/18 12:15:17;;;;;;;;;;;17.60;1.00;;;;;;5051594;28;19905;-77
2024/03/18 12:17:43;;;;;;;;;;;17.50;1.00;;;;;;5057052;28;19915;-76
2024/03/18 12:20:26;;;;;;;;;;;17.20;1.00;;;;;;5054253;28;19920;-77
2024/03/18 12:23:02;;;;;;;;;;;17.10;1.00;;;;;;5047708;28;20410;-77
2024/03/18 12:28:47;;;;;;;;;;;16.60;1.00;;;;;;5057193;28;19961;-82
2024/03/18 12:31:17;;;;;;;;;;;16.80;1.00;;;;;;5041066;28;19909;-79
2024/03/18 12:33:43;;;;;;;;;;;16.80;1.00;;;;;;5053952;28;20313;-79
2024/03/18 12:36:14;;;;;;;;;;;16.60;1.00;;;;;;5056600;28;19916;-80
2024/03/18 12:41:44;;;;;;;;;;;17.70;1.00;;;;;;5044978;28;19919;-80
2024/03/18 12:44:13;;;;;;;;;;;18.00;1.00;;;;;;5050786;28;19905;-80
2024/03/18 12:46:43;;;;;;;;;;;18.90;1.00;;;;;;5046353;28;20003;-80
2024/03/18 12:49:20;;;;;;;;;;;19.00;1.00;;;;;;5050163;28;19908;-80
2024/03/18 12:51:46;;;;;;;;;;;19.10;1.00;;;;;;5055753;28;19936;-79
2024/03/18 12:54:19;;;;;;;;;;;18.80;1.00;;;;;;5057094;28;19916;-76
2024/03/18 12:56:45;;;;;;;;;;;18.60;1.00;;;;;;5056210;28;20729;-76
2024/03/18 12:59:11;;;;;;;;;;;18.50;1.00;;;;;;5045123;28;19913;-76
2024/03/18 13:01:38;;;;;;;;;;;18.20;1.00;;;;;;5046060;28;19915;-76
2024/03/18 13:04:05;;;;;;;;;;;18.10;1.00;;;;;;5037048;28;19936;-76
2024/03/18 13:06:31;;;;;;;;;;;17.80;1.00;;;;;;5038771;28;19909;-76
2024/03/18 13:09:16;;;;;;;;;;;17.80;1.00;;;;;;5037334;28;19909;-77
2024/03/18 13:11:42;;;;;;;;;;;17.80;1.00;;;;;;5023382;28;19951;-77
2024/03/18 13:14:19;;;;;;;;;;;17.80;1.00;;;;;;5018684;28;19909;-77
2024/03/18 13:16:45;;;;;;;;;;;17.90;1.00;;;;;;5046244;28;20036;-77
2024/03/18 13:19:32;;;;;;;;;;;17.90;1.00;;;;;;5040846;28;19916;-77
2024/03/18 13:22:13;;;;;;;;;;;18.00;1.00;;;;;;5048889;28;19909;-77
2024/03/18 13:27:42;;;;;;;;;;;17.70;1.00;;;;;;5055089;28;20276;-80
2024/03/18 13:30:16;;;;;;;;;;;18.30;1.00;;;;;;5043271;28;19920;-80
2024/03/18 13:32:44;;;;;;;;;;;18.20;1.00;;;;;;5037042;28;20008;-78
2024/03/18 13:35:10;;;;;;;;;;;18.20;1.00;;;;;;5051538;28;19909;-77
2024/03/18 13:37:38;;;;;;;;;;;17.90;1.00;;;;;;5046026;28;20248;-79
2024/03/18 13:40:06;;;;;;;;;;;17.90;1.00;;;;;;5039077;28;19956;-79
2024/03/18 13:42:38;;;;;;;;;;;17.90;1.00;;;;;;5036854;28;19916;-78
2024/03/18 13:45:14;;;;;;;;;;;17.90;1.00;;;;;;5050620;28;19913;-79
2024/03/18 13:47:44;;;;;;;;;;;17.60;1.00;;;;;;5055962;28;19948;-78
2024/03/18 13:50:15;;;;;;;;;;;18.00;1.00;;;;;;5045580;28;20364;-78
2024/03/18 13:52:44;;;;;;;;;;;18.00;1.00;;;;;;5050469;28;20360;-77
2024/03/18 13:55:31;;;;;;;;;;;18.20;1.00;;;;;;5055262;28;19991;-75
2024/03/18 13:57:57;;;;;;;;;;;18.20;1.00;;;;;;5052347;28;19909;-75
2024/03/18 14:00:26;;;;;;;;;;;18.40;1.00;;;;;;5036607;28;20430;-76
2024/03/18 14:02:55;;;;;;;;;;;18.50;1.00;;;;;;5035933;28;19916;-79
2024/03/18 14:05:21;;;;;;;;;;;18.90;1.00;;;;;;5040364;28;19912;-76
2024/03/18 14:07:50;;;;;;;;;;;19.20;1.00;;;;;;5037618;28;19920;-74
2024/03/18 14:10:17;;;;;;;;;;;19.20;1.00;;;;;;5036082;28;19912;-75
2024/03/18 14:12:43;;;;;;;;;;;19.10;1.00;;;;;;5048784;28;20387;-74
2024/03/18 14:15:11;;;;;;;;;;;19.10;1.00;;;;;;5026265;28;19905;-76
2024/03/18 14:17:38;;;;;;;;;;;19.10;1.00;;;;;;5041070;28;20416;-76
2024/03/18 14:20:08;;;;;;;;;;;19.00;1.00;;;;;;5048526;28;19909;-74
2024/03/18 14:22:35;;;;;;;;;;;18.60;1.00;;;;;;5040375;28;20354;-75
2024/03/18 14:25:04;;;;;;;;;;;18.40;1.00;;;;;;5041716;28;19998;-75
2024/03/18 14:27:29;;;;;;;;;;;18.40;1.00;;;;;;5032586;28;20234;-75
2024/03/18 14:29:55;;;;;;;;;;;18.40;1.00;;;;;;5046294;28;19919;-75
2024/03/18 14:32:26;;;;;;;;;;;18.50;1.00;;;;;;5049252;28;19954;-75
2024/03/18 14:34:55;;;;;;;;;;;18.50;1.00;;;;;;5038822;28;19909;-75
2024/03/18 14:37:32;;;;;;;;;;;18.70;1.00;;;;;;5041321;28;19916;-76
2024/03/18 14:39:57;;;;;;;;;;;18.90;1.00;;;;;;5043540;28;19948;-76
2024/03/18 14:42:25;;;;;;;;;;;18.80;1.00;;;;;;5054748;28;19952;-76
2024/03/18 14:44:56;;;;;;;;;;;18.90;1.00;;;;;;5035306;28;19956;-77
2024/03/18 14:47:31;;;;;;;;;;;19.00;1.00;;;;;;5039361;28;19913;-77
2024/03/18 14:53:00;;;;;;;;;;;19.40;1.00;;;;;;5040809;28;19912;-77
2024/03/18 14:55:32;;;;;;;;;;;19.30;1.00;;;;;;5047732;28;19909;-76
2024/03/18 14:58:02;;;;;;;;;;;19.30;1.00;;;;;;5054836;28;19909;-77
2024/03/18 15:00:27;;;;;;;;;;;19.10;1.00;;;;;;5044934;28;19909;-75
2024/03/18 15:03:03;;;;;;;;;;;19.10;1.00;;;;;;5047300;28;19920;-76
2024/03/18 15:05:28;;;;;;;;;;;18.90;1.00;;;;;;5036805;28;19920;-76
2024/03/18 15:07:54;;;;;;;;;;;18.70;1.00;;;;;;5046076;28;19909;-75
2024/03/18 15:10:26;;;;;;;;;;;18.50;1.00;;;;;;5038239;28;19955;-76
2024/03/18 15:12:52;;;;;;;;;;;18.10;1.00;;;;;;5034556;28;19912;-76
2024/03/18 15:15:19;;;;;;;;;;;17.90;1.00;;;;;;5049639;28;19905;-76
2024/03/18 15:17:52;;;;;;;;;;;17.60;1.00;;;;;;5036969;28;19913;-76
2024/03/18 15:20:20;;;;;;;;;;;17.60;1.00;;;;;;5038081;28;20086;-76
2024/03/18 15:22:50;;;;;;;;;;;17.20;1.00;;;;;;5044132;28;19915;-75
2024/03/18 15:28:31;;;;;;;;;;;17.00;1.00;;;;;;5034928;28;19915;-77
2024/03/18 15:31:02;;;;;;;;;;;16.80;1.00;;;;;;5046488;28;20001;-79
2024/03/18 15:33:27;;;;;;;;;;;16.80;1.00;;;;;;5037174;28;19909;-79
2024/03/18 15:36:08;;;;;;;;;;;16.80;1.00;;;;;;5047382;28;19916;-79
2024/03/18 15:39:08;;;;;;;;;;;16.80;1.00;;;;;;5016388;28;19990;-77
2024/03/18 15:41:44;;;;;;;;;;;16.80;1.00;;;;;;5048046;28;19948;-78
2024/03/18 15:44:44;;;;;;;;;;;16.70;1.00;;;;;;5047661;28;19912;-78
2024/03/18 15:47:10;;;;;;;;;;;16.70;1.00;;;;;;5048973;28;19913;-77
2024/03/18 15:49:36;;;;;;;;;;;16.60;1.00;;;;;;5035306;28;19905;-79